Date,TemperatureHighF,TemperatureAvgF,TemperatureLowF,DewpointHighF,DewpointAvgF,DewpointLowF,HumidityHigh,HumidityAvg,HumidityLow,PressureMaxIn,PressureMinIn,WindSpeedMaxMPH,WindSpeedAvgMPH,GustSpeedMaxMPH,PrecipitationSumIn
2013-1-1,36,33,30,33,31,29,95,92,85,30.42,30.35,4,0,4,0.00
2013-1-2,49,34,28,39,29,26,96,83,51,30.35,30.19,4,1,4,0.00
2013-1-3,47,35,26,36,28,24,96,81,47,30.20,30.09,9,1,9,0.24
2013-1-4,51,44,36,47,41,35,97,91,80,30.31,30.16,8,1,11,0.04
2013-1-5,48,42,40,43,39,37,95,87,74,30.20,30.11,10,1,10,0.10
2013-1-6,46,43,41,42,40,38,95,89,81,30.19,29.98,9,2,13,0.10
2013-1-7,51,47,41,48,44,39,96,89,82,30.16,29.80,13,3,22,0.17
2013-1-8,53,48,42,50,45,40,97,90,83,30.16,29.72,20,3,22,0.58
2013-1-9,50,41,34,48,39,33,96,94,87,29.95,29.66,14,2,18,1.43
2013-1-10,39,36,30,38,34,29,97,95,92,30.12,29.94,6,1,7,0.25
2013-1-11,33,29,26,31,28,24,96,95,91,30.33,30.11,5,1,6,0.01
2013-1-12,37,28,24,32,26,23,96,90,69,30.45,30.32,7,1,8,0.02
2013-1-13,38,28,22,33,26,20,95,89,66,30.50,30.44,3,1,3,0.01
2013-1-14,39,34,32,34,31,29,93,88,71,30.57,30.47,4,1,4,0.01
2013-1-15,45,36,29,39,32,28,96,88,67,30.70,30.57,5,0,5,0.00
2013-1-16,47,33,26,45,31,25,96,91,73,30.68,30.52,6,1,6,0.01
2013-1-17,39,32,28,38,31,27,97,96,92,30.53,30.30,4,1,4,0.00
2013-1-18,37,33,31,36,32,30,98,97,95,30.35,30.27,5,1,5,0.00
2013-1-19,35,32,30,33,31,29,97,96,94,30.39,30.34,5,1,5,0.00
2013-1-20,38,33,30,36,32,30,97,96,91,30.40,30.27,5,1,6,0.00
2013-1-21,38,32,29,36,31,28,98,97,95,30.28,30.14,4,1,5,0.00
2013-1-22,42,34,29,40,32,28,98,96,88,30.15,29.90,4,1,5,0.00
2013-1-23,43,40,36,42,38,32,97,91,75,30.14,29.84,8,1,9,0.31
2013-1-24,47,43,40,42,40,38,96,89,74,30.21,30.05,8,1,10,0.15
2013-1-25,51,46,42,47,43,40,97,92,80,30.06,29.92,6,1,7,0.13
2013-1-26,45,43,40,42,40,38,96,91,85,30.03,29.88,10,2,14,0.33
2013-1-27,43,42,40,40,39,38,94,91,86,30.05,29.99,10,2,12,0.12
2013-1-28,43,41,40,42,40,38,96,94,92,30.09,30.00,8,1,9,0.41
2013-1-29,48,45,42,46,44,41,97,95,93,30.33,30.08,9,2,10,0.58
2013-1-30,49,48,45,48,46,44,97,96,94,30.38,30.32,6,2,10,0.13
2013-1-31,50,48,47,46,46,45,97,93,85,30.39,30.30,9,2,12,0.13
2013-2-1,52,46,41,47,44,40,97,93,79,30.41,30.33,7,1,7,0.00
2013-2-2,44,40,39,41,39,38,97,95,91,30.39,30.26,6,1,7,0.00
2013-2-3,49,44,39,45,42,37,97,93,83,30.30,30.20,6,1,7,0.07
2013-2-4,51,47,45,44,43,42,94,86,73,30.21,29.88,6,1,8,0.00
2013-2-5,51,47,44,44,43,41,95,85,73,29.93,29.84,15,3,16,0.14
2013-2-6,52,46,44,43,41,40,93,82,66,30.05,29.78,14,2,15,0.06
2013-2-7,50,44,35,42,38,33,94,79,58,30.19,29.79,13,2,17,0.10
2013-2-8,46,38,31,42,35,30,96,89,73,30.31,30.19,4,1,5,0.00
2013-2-9,46,42,40,44,40,37,96,92,81,30.34,30.26,4,0,4,0.00
2013-2-10,48,40,34,41,37,33,97,89,66,30.38,30.32,6,1,6,0.00
2013-2-11,48,44,40,42,40,38,96,88,73,30.36,30.32,5,1,5,0.02
2013-2-12,50,47,43,47,44,41,96,90,84,30.41,30.28,15,2,15,0.01
2013-2-13,49,46,44,46,43,42,96,92,84,30.50,30.31,8,1,13,0.15
2013-2-14,49,46,43,45,43,41,95,90,81,30.56,30.49,7,1,11,0.06
2013-2-15,57,46,39,46,42,38,97,89,65,30.55,30.18,5,1,5,0.00
2013-2-16,54,44,37,45,41,35,97,90,64,30.21,30.10,12,2,13,0.38
2013-2-17,46,42,39,41,39,37,97,88,73,30.25,30.12,7,1,9,0.00
2013-2-18,48,42,38,40,38,36,94,85,68,30.12,29.76,8,1,8,0.01
2013-2-19,51,43,36,39,36,33,93,80,57,30.01,29.73,8,1,9,0.00
2013-2-20,47,40,34,42,37,33,96,89,75,30.05,29.99,10,1,11,0.12
2013-2-21,45,43,39,41,40,38,97,89,82,30.07,30.00,14,2,20,0.01
2013-2-22,47,44,40,43,39,34,91,85,75,30.05,29.68,21,4,26,0.14
2013-2-23,50,44,40,39,37,36,89,79,63,30.37,29.90,13,2,13,0.00
2013-2-24,48,45,42,38,37,35,83,73,62,30.38,29.95,13,3,16,0.00
2013-2-25,52,45,39,40,38,33,90,77,52,30.31,29.89,19,3,20,0.10
2013-2-26,49,44,34,38,35,32,94,73,54,30.35,30.19,11,2,12,0.01
2013-2-27,50,44,41,45,41,38,96,89,69,30.31,30.20,11,1,13,0.31
2013-2-28,53,48,43,51,47,42,97,95,92,30.32,30.19,10,2,12,0.16
2013-3-1,57,54,50,51,50,49,97,87,77,30.36,30.27,14,3,16,0.06
2013-3-2,58,50,39,50,45,37,95,83,72,30.27,30.07,11,3,13,0.33
2013-3-3,51,41,34,40,36,31,97,83,50,30.31,30.20,8,1,10,0.00
2013-3-4,56,42,30,36,30,24,96,66,33,30.31,29.92,11,1,11,0.00
2013-3-5,52,47,42,41,34,24,88,64,42,29.92,29.72,9,1,10,0.00
2013-3-6,46,42,40,43,40,38,96,91,83,29.90,29.58,9,1,11,0.45
2013-3-7,52,44,39,45,41,38,97,90,66,30.09,29.90,8,1,8,0.18
2013-3-8,55,41,33,44,37,32,97,87,62,30.25,30.08,7,1,9,0.00
2013-3-9,55,42,32,41,36,31,97,83,53,30.49,30.25,7,1,7,0.00
2013-3-10,49,43,36,47,39,34,95,88,71,30.50,30.43,6,1,6,0.00
2013-3-11,52,47,42,46,43,40,96,87,70,30.45,30.16,6,1,7,0.03
2013-3-12,56,53,49,51,48,46,94,86,73,30.16,30.06,14,4,17,0.01
2013-3-13,53,52,50,51,49,48,96,91,85,30.21,30.09,15,2,16,0.24
2013-3-14,54,50,48,50,47,45,97,90,76,30.15,30.03,9,2,10,0.01
2013-3-15,60,53,49,50,48,45,94,85,69,30.21,30.13,9,2,11,0.00
2013-3-16,52,47,39,46,42,35,88,83,69,30.13,29.88,14,3,20,0.01
2013-3-17,51,43,38,39,36,33,95,79,56,30.20,29.98,15,2,20,0.10
2013-3-18,53,44,38,44,37,34,94,77,52,30.24,30.10,16,2,20,0.07
2013-3-19,56,43,35,42,36,28,95,79,38,30.23,29.60,17,2,17,0.29
2013-3-20,53,47,37,49,42,34,97,85,70,30.02,29.39,26,4,28,0.55
2013-3-21,48,40,36,39,36,34,95,84,63,30.22,30.02,12,2,14,0.08
2013-3-22,48,39,33,37,33,28,95,78,51,30.38,30.21,9,2,9,0.02
2013-3-23,51,40,32,36,29,21,92,69,34,30.40,30.30,6,2,7,0.00
2013-3-24,55,42,30,41,31,27,92,68,35,30.31,30.12,5,1,6,0.00
2013-3-25,63,49,34,41,31,27,82,53,29,30.13,29.93,8,1,9,0.00
2013-3-26,62,51,45,42,38,35,79,63,38,30.02,29.95,7,1,8,0.00
2013-3-27,58,50,44,49,43,38,94,78,55,29.99,29.94,6,1,6,0.01
2013-3-28,63,52,43,50,45,42,96,81,54,30.15,29.99,7,1,9,0.03
2013-3-29,66,53,43,48,45,42,95,76,50,30.25,30.15,8,1,8,0.00
2013-3-30,70,54,40,47,44,38,95,71,38,30.26,30.08,10,1,10,0.00
2013-3-31,72,56,42,49,44,40,93,68,40,30.08,29.90,7,1,7,0.00
2013-4-1,62,54,48,50,47,44,92,80,61,30.16,29.96,10,2,11,0.00
2013-4-2,57,53,50,49,47,45,88,80,71,30.20,30.15,12,2,13,0.00
2013-4-3,62,54,46,49,46,42,94,75,51,30.19,29.95,7,1,8,0.00
2013-4-4,57,53,50,54,50,46,96,89,81,29.95,29.64,12,1,17,0.32
2013-4-5,57,53,49,51,49,46,94,86,75,29.87,29.72,18,3,19,0.22
2013-4-6,55,49,45,48,45,42,95,86,73,29.93,29.69,15,3,18,0.46
2013-4-7,46,44,40,44,42,39,96,93,88,29.89,29.50,9,1,11,0.67
2013-4-8,56,48,43,48,44,41,95,87,68,30.27,29.89,8,1,8,0.03
2013-4-9,55,50,43,45,43,40,92,78,60,30.35,30.18,9,2,9,0.00
2013-4-10,60,52,49,51,46,43,94,80,66,30.26,29.94,19,2,19,0.18
2013-4-11,56,49,44,45,41,36,94,75,54,30.30,30.19,7,1,8,0.11
2013-4-12,48,44,40,44,40,37,92,85,71,30.19,29.67,13,2,20,0.18
2013-4-13,50,43,37,44,39,35,95,88,75,30.00,29.76,14,2,17,0.46
2013-4-14,57,46,39,42,39,33,96,77,46,30.01,29.91,8,2,9,0.10
2013-4-15,58,46,39,43,39,35,95,79,47,30.18,29.95,14,1,15,0.01
2013-4-16,56,45,36,45,38,33,96,79,47,30.40,30.18,11,1,15,0.05
2013-4-17,62,49,36,43,38,32,94,70,34,30.46,30.39,9,1,11,0.00
2013-4-18,52,48,45,48,43,39,92,82,71,30.46,30.20,14,2,14,0.15
2013-4-19,55,51,49,53,49,47,95,93,88,30.20,30.06,13,2,14,0.38
2013-4-20,55,50,47,51,47,45,96,89,75,30.28,30.19,8,2,9,0.28
2013-4-21,57,48,42,47,43,39,96,85,61,30.37,30.23,9,1,9,0.10
2013-4-22,63,49,36,44,36,26,96,65,27,30.52,30.37,9,1,10,0.00
2013-4-23,66,50,35,47,36,28,95,64,26,30.43,30.24,8,1,10,0.00
2013-4-24,72,55,39,44,38,28,93,59,21,30.33,30.06,7,1,9,0.00
2013-4-25,73,58,42,45,40,35,87,55,27,30.14,30.04,8,1,8,0.00
2013-4-26,66,56,45,51,47,43,94,73,55,30.26,30.14,9,1,10,0.00
2013-4-27,56,54,51,49,46,39,86,73,53,30.23,30.15,18,2,20,0.00
2013-4-28,59,52,47,50,46,41,95,81,59,30.22,29.94,16,2,16,0.12
2013-4-29,59,49,44,47,40,32,94,73,38,30.17,29.91,9,2,14,0.11
2013-4-30,59,46,37,41,36,26,95,71,34,30.45,30.17,8,1,9,0.13
2013-5-1,66,50,34,40,35,29,94,61,26,30.58,30.45,6,1,8,0.00
2013-5-2,73,56,43,45,41,38,84,60,33,30.55,30.36,8,1,10,0.00
2013-5-3,73,58,43,50,45,40,91,64,41,30.39,30.23,11,1,11,0.00
2013-5-4,80,64,47,52,46,38,88,56,25,30.24,30.00,10,1,12,0.00
2013-5-5,85,67,48,51,46,39,86,53,22,30.00,29.76,7,1,8,0.00
2013-5-6,89,69,51,51,46,41,84,49,20,29.85,29.74,7,1,8,0.00
2013-5-7,72,61,53,55,51,47,89,72,52,30.00,29.81,11,2,12,0.00
2013-5-8,66,57,53,53,51,49,90,79,62,30.14,30.00,10,2,11,0.00
2013-5-9,72,59,50,56,52,48,95,79,46,30.22,30.11,8,1,8,0.00
2013-5-10,82,64,48,56,52,46,94,68,35,30.20,30.10,7,1,7,0.00
2013-5-11,82,67,57,56,50,44,82,58,33,30.17,29.98,10,1,10,0.00
2013-5-12,73,64,59,58,56,52,91,77,57,30.10,30.01,10,2,17,0.09
2013-5-13,68,58,51,59,51,43,90,78,61,30.19,29.92,19,4,27,0.09
2013-5-14,65,56,48,46,43,37,83,63,38,30.23,30.11,9,2,11,0.00
2013-5-15,67,54,45,52,46,41,92,75,44,30.12,30.02,12,1,14,0.04
2013-5-16,74,61,53,54,52,48,94,73,42,30.02,29.86,7,1,8,0.00
2013-5-17,64,58,54,52,50,46,89,74,54,30.06,29.95,10,2,11,0.01
2013-5-18,63,57,53,49,47,45,83,70,53,30.27,30.06,14,2,15,0.00
2013-5-19,66,58,52,52,49,47,85,74,55,30.40,30.27,5,1,7,0.00
2013-5-20,69,56,45,52,48,43,94,75,45,30.36,29.90,8,1,9,0.00
2013-5-21,58,51,47,52,46,44,93,83,63,29.91,29.78,12,2,15,0.30
2013-5-22,55,49,45,48,45,42,93,86,73,29.94,29.85,10,2,10,0.08
2013-5-23,61,51,46,47,45,42,94,82,52,30.02,29.93,12,1,14,0.04
2013-5-24,65,54,46,50,46,43,94,76,48,30.05,29.97,8,1,11,0.02
2013-5-25,67,57,51,50,47,43,87,71,44,30.05,29.97,11,2,11,0.00
2013-5-26,66,57,52,55,51,48,92,81,63,29.99,29.94,9,1,9,0.03
2013-5-27,60,56,51,57,53,49,93,88,79,29.97,29.71,8,1,10,0.16
2013-5-28,65,58,53,53,50,48,90,78,59,29.89,29.77,11,2,13,0.01
2013-5-29,63,54,51,53,50,48,94,86,65,29.97,29.68,11,1,12,0.10
2013-5-30,65,56,50,49,48,45,87,73,52,30.25,29.97,12,2,15,0.01
2013-5-31,69,59,52,50,47,43,86,67,42,30.35,30.25,7,1,7,0.00
2013-6-1,74,61,52,52,48,41,85,64,33,30.25,30.05,8,1,8,0.00
2013-6-2,73,62,53,53,51,47,92,70,45,30.09,30.04,7,1,8,0.04
2013-6-3,73,61,51,54,52,48,92,73,45,30.13,30.05,9,1,9,0.00
2013-6-4,82,66,50,57,52,47,93,64,37,30.13,30.01,6,1,8,0.00
2013-6-5,81,66,54,59,53,46,79,63,41,30.09,30.02,7,1,8,0.00
2013-6-6,82,66,52,57,51,43,91,61,29,30.06,30.00,7,1,8,0.00
2013-6-7,70,62,56,57,49,43,76,63,43,30.16,30.02,13,1,14,0.00
2013-6-8,70,60,54,53,49,47,79,68,54,30.20,30.10,7,2,8,0.00
2013-6-9,70,59,51,51,48,45,86,69,49,30.12,30.02,8,1,11,0.00
2013-6-10,72,60,48,52,47,43,87,65,39,30.04,29.88,7,1,9,0.00
2013-6-11,67,58,53,54,48,45,86,68,50,30.10,29.94,13,2,16,0.05
2013-6-12,70,60,54,52,48,44,88,65,42,30.15,30.10,11,2,12,0.01
2013-6-13,73,61,54,52,49,43,89,67,37,30.22,30.14,8,1,8,0.00
2013-6-14,68,60,55,51,49,47,80,67,51,30.23,30.06,8,2,10,0.00
2013-6-15,79,64,48,57,52,46,93,69,43,30.06,29.91,7,1,8,0.00
2013-6-16,76,65,57,60,54,52,90,70,51,30.09,29.99,8,1,9,0.00
2013-6-17,78,66,57,55,52,46,87,64,34,30.09,29.88,15,2,16,0.01
2013-6-18,75,65,56,55,50,42,89,63,33,29.99,29.87,11,2,15,0.00
2013-6-19,67,60,57,56,52,49,86,74,58,30.01,29.92,8,2,9,0.00
2013-6-20,61,57,53,55,52,49,95,86,70,30.12,29.96,10,2,13,0.67
2013-6-21,69,60,53,55,53,49,96,79,53,30.17,30.11,6,1,7,0.00
2013-6-22,79,65,51,56,52,48,95,66,38,30.12,29.85,7,1,9,0.00
2013-6-23,72,66,59,63,59,54,93,79,67,29.85,29.59,5,0,5,0.11
2013-6-24,70,63,58,61,56,53,96,79,57,29.70,29.58,14,2,16,0.09
2013-6-25,76,64,57,60,56,51,95,80,44,29.86,29.67,16,1,17,0.33
2013-6-26,74,64,57,61,58,55,96,81,58,30.08,29.85,9,1,9,0.04
2013-6-27,73,66,60,64,61,56,95,85,69,30.20,30.05,6,0,7,0.06
2013-6-28,90,74,61,67,62,59,95,71,38,30.19,30.03,10,1,11,0.00
2013-6-29,87,74,65,64,61,56,86,66,43,30.10,29.98,6,1,7,0.00
2013-6-30,96,77,60,68,62,56,89,63,34,30.01,29.84,6,1,7,0.00
2013-7-1,92,77,64,66,62,58,83,61,39,30.02,29.90,6,1,8,0.00
2013-7-2,85,71,61,63,56,50,86,62,34,30.10,30.02,8,1,9,0.00
2013-7-3,82,68,60,58,51,43,70,56,35,30.15,30.03,8,2,10,0.00
2013-7-4,72,64,57,56,53,50,81,70,52,30.12,30.03,9,1,9,0.00
2013-7-5,77,65,55,57,54,52,88,71,48,30.03,29.94,10,1,11,0.00
2013-7-6,83,68,55,60,56,53,93,67,39,29.98,29.85,8,1,8,0.00
2013-7-7,77,67,57,61,57,53,88,73,54,29.95,29.87,9,2,11,0.00
2013-7-8,80,67,58,60,56,53,86,70,44,30.09,29.94,9,2,10,0.00
2013-7-9,87,71,58,61,57,52,90,63,35,30.11,29.99,8,1,9,0.00
2013-7-10,73,64,58,58,54,50,82,71,58,30.07,29.95,10,2,11,0.00
2013-7-11,74,62,56,52,49,47,83,65,44,30.09,29.99,8,2,10,0.00
2013-7-12,69,60,51,54,50,47,85,72,55,30.10,30.02,8,1,8,0.00
2013-7-13,79,64,48,55,50,45,91,63,35,30.20,30.10,8,1,8,0.00
2013-7-14,84,67,51,56,49,44,90,58,27,30.13,29.98,8,1,10,0.00
2013-7-15,83,69,52,58,51,48,88,56,34,30.05,29.89,9,1,9,0.00
2013-7-16,91,74,57,60,54,48,78,52,26,29.90,29.78,6,1,7,0.00
2013-7-17,71,67,60,60,57,55,84,71,56,30.19,29.87,10,2,13,0.02
2013-7-18,80,67,59,60,57,54,88,70,51,30.23,30.11,8,1,9,0.00
2013-7-19,82,66,54,62,57,52,93,74,49,30.17,30.03,9,1,9,0.00
2013-7-20,77,65,54,61,57,52,93,78,57,30.09,29.95,7,1,8,0.00
2013-7-21,76,65,57,62,58,54,92,78,58,29.98,29.90,8,1,8,0.00
2013-7-22,78,66,58,61,58,55,92,75,51,30.07,29.93,6,1,8,0.00
2013-7-23,88,71,56,61,56,53,93,64,34,30.06,29.96,7,1,7,0.00
2013-7-24,87,71,57,60,54,49,86,59,33,30.05,29.98,8,1,10,0.00
2013-7-25,87,70,54,58,52,44,83,57,25,30.09,30.03,8,1,9,0.00
2013-7-26,87,69,54,56,51,44,89,58,25,30.15,30.07,10,1,11,0.00
2013-7-27,78,66,53,55,52,48,88,64,40,30.16,29.99,10,1,11,0.00
2013-7-28,70,62,56,56,54,51,88,75,61,30.03,29.95,11,2,14,0.00
2013-7-29,75,65,58,58,55,52,82,70,52,30.01,29.94,7,1,9,0.00
2013-7-30,77,66,58,60,56,54,88,72,51,30.13,30.00,9,1,11,0.00
2013-7-31,71,63,59,62,58,55,92,84,68,30.12,29.99,6,1,8,0.00
2013-8-1,68,62,57,59,56,54,90,80,67,30.06,30.03,9,2,13,0.00
2013-8-2,62,61,59,59,57,54,95,88,79,30.13,30.06,9,1,10,0.20
2013-8-3,76,66,60,62,59,56,96,81,60,30.13,30.04,6,0,6,0.00
2013-8-4,84,69,55,63,59,54,95,72,48,30.06,29.93,6,1,8,0.00
2013-8-5,87,72,58,62,58,53,93,65,33,30.01,29.91,7,1,7,0.00
2013-8-6,86,70,55,61,55,50,87,62,30,30.00,29.90,7,1,7,0.00
2013-8-7,87,71,57,60,56,53,89,63,34,30.01,29.93,8,1,8,0.00
2013-8-8,84,69,61,62,58,53,88,69,46,30.04,29.94,8,1,9,0.00
2013-8-9,84,70,57,63,57,52,87,65,42,29.96,29.83,7,1,8,0.00
2013-8-10,78,69,61,64,61,58,94,79,59,30.00,29.88,11,1,11,0.07
2013-8-11,76,67,60,60,56,54,87,70,49,30.06,29.98,10,2,10,0.00
2013-8-12,78,67,58,58,56,54,88,70,49,30.07,30.00,7,1,7,0.00
2013-8-13,81,68,57,59,56,49,91,67,35,30.10,29.92,6,1,7,0.00
2013-8-14,81,68,57,63,59,54,92,74,45,29.96,29.90,9,1,9,0.01
2013-8-15,70,67,64,67,64,61,95,89,81,29.99,29.91,6,0,6,0.03
2013-8-16,84,72,62,66,61,50,97,72,35,30.01,29.93,7,1,8,0.00
2013-8-17,80,70,62,62,59,55,82,67,54,30.07,30.00,9,1,11,0.00
2013-8-18,80,68,62,61,57,52,84,68,49,30.12,30.06,9,1,10,0.00
2013-8-19,80,68,59,60,56,51,80,66,49,30.12,30.05,8,1,9,0.00
2013-8-20,79,66,58,58,53,50,81,65,45,30.17,30.06,10,1,10,0.00
2013-8-21,83,68,52,56,52,49,89,62,36,30.10,29.93,8,1,9,0.00
2013-8-22,86,72,56,62,56,52,87,59,35,29.95,29.79,6,1,7,0.00
2013-8-23,76,68,63,59,57,56,82,69,54,29.89,29.82,10,2,12,0.00
2013-8-24,78,67,60,59,56,50,90,70,42,29.92,29.84,8,2,9,0.00
2013-8-25,74,64,53,62,56,51,93,77,54,29.95,29.86,6,0,7,0.01
2013-8-26,76,66,60,62,58,52,91,78,47,29.96,29.85,10,1,12,0.03
2013-8-27,81,69,62,62,59,56,88,72,50,29.95,29.78,6,1,8,0.00
2013-8-28,80,70,61,66,61,57,96,77,53,29.89,29.82,6,1,7,0.12
2013-8-29,75,68,64,67,64,62,95,88,71,30.01,29.85,9,1,9,0.34
2013-8-30,79,69,61,64,58,51,90,69,42,30.15,30.01,10,2,16,0.00
2013-8-31,83,68,54,61,57,52,95,72,44,30.08,29.83,6,0,7,0.00
2013-9-1,81,69,58,62,59,56,95,71,48,29.89,29.79,8,1,8,0.00
2013-9-2,82,70,59,61,58,56,91,67,46,29.94,29.85,9,1,9,0.00
2013-9-3,74,66,61,65,61,57,95,87,64,30.02,29.92,5,0,5,0.12
2013-9-4,70,64,59,62,60,57,95,88,75,30.05,29.99,6,0,7,0.01
2013-9-5,70,63,59,63,60,57,96,89,74,30.04,29.92,7,0,7,0.54
2013-9-6,73,65,61,64,61,59,96,89,71,30.11,29.94,8,1,10,0.65
2013-9-7,74,66,60,63,61,58,93,84,66,30.11,30.01,6,0,7,0.00
2013-9-8,79,66,57,64,60,56,97,81,57,30.11,30.01,7,1,7,0.00
2013-9-9,80,66,58,64,60,56,96,83,56,30.07,29.97,7,0,8,0.00
2013-9-10,81,67,57,64,60,55,96,80,55,30.00,29.88,6,1,7,0.00
2013-9-11,94,74,58,66,61,56,94,67,35,29.93,29.85,5,1,5,0.00
2013-9-12,80,68,62,64,61,59,93,78,55,30.00,29.89,6,1,7,0.00
2013-9-13,67,64,60,62,60,58,95,88,81,29.97,29.87,5,1,6,0.00
2013-9-14,70,65,61,63,61,59,94,86,76,29.88,29.73,4,0,5,0.00
2013-9-15,67,63,60,63,60,58,96,92,85,29.82,29.71,9,1,9,0.18
2013-9-16,71,63,58,60,58,54,91,84,68,29.93,29.80,10,2,13,0.00
2013-9-17,64,59,55,55,54,52,91,82,68,29.94,29.87,6,0,6,0.00
2013-9-18,71,63,54,56,52,50,93,71,54,30.07,29.94,9,1,10,0.00
2013-9-19,79,62,47,56,50,46,95,70,39,30.05,29.75,5,1,6,0.00
2013-9-20,76,62,52,57,54,49,93,75,46,29.76,29.59,14,1,15,0.02
2013-9-21,70,63,58,58,55,53,90,78,59,29.72,29.64,10,1,11,0.01
2013-9-22,63,59,56,57,54,48,90,81,62,29.73,29.57,13,3,18,0.21
2013-9-23,63,58,51,55,52,49,93,84,72,29.97,29.73,16,2,20,0.09
2013-9-24,65,56,51,52,50,47,95,80,55,29.96,29.83,10,1,14,0.06
2013-9-25,60,52,46,52,49,44,96,88,66,30.03,29.86,7,1,7,0.07
2013-9-26,63,52,44,53,47,42,97,86,62,30.13,30.03,6,1,7,0.01
2013-9-27,58,55,49,54,51,47,94,85,78,30.12,29.84,11,2,12,0.05
2013-9-28,62,57,53,58,54,50,96,91,83,29.85,29.33,17,3,23,0.05
2013-9-29,57,55,53,53,50,48,93,85,76,29.56,29.16,19,4,26,0.03
2013-9-30,58,54,50,52,49,46,92,84,75,29.92,29.41,16,3,18,0.00
2013-10-1,60,53,49,49,47,44,93,80,60,30.11,29.91,12,3,18,0.01
2013-10-2,55,52,49,50,48,47,95,87,75,30.18,30.06,13,1,13,0.01
2013-10-3,60,52,45,50,48,43,96,86,65,30.46,30.18,5,0,6,0.01
2013-10-4,64,50,40,52,45,39,97,84,53,30.49,30.35,5,1,5,0.01
2013-10-5,71,55,43,53,47,42,96,77,47,30.36,30.13,5,0,5,0.00
2013-10-6,74,57,42,54,48,41,97,75,37,30.13,29.87,12,1,14,0.98
2013-10-7,62,56,54,52,50,47,92,81,58,30.01,29.89,12,3,16,0.08
2013-10-8,56,51,43,51,47,41,95,85,70,30.08,29.96,9,1,12,0.22
2013-10-9,59,48,39,51,44,38,97,87,61,30.14,29.95,5,1,5,0.00
2013-10-10,60,52,45,51,48,44,95,85,66,30.07,29.94,6,0,7,0.01
2013-10-11,55,51,48,51,49,46,96,92,85,30.14,30.06,4,0,4,0.02
2013-10-12,58,51,44,52,48,42,97,91,73,30.21,30.07,4,0,6,0.14
2013-10-13,56,47,40,49,45,39,97,91,75,30.37,30.21,6,0,7,0.00
2013-10-14,60,47,37,50,43,36,97,88,62,30.43,30.36,4,1,6,0.01
2013-10-15,59,48,39,52,45,38,97,90,71,30.39,30.17,5,1,6,0.00
2013-10-16,55,50,44,50,48,43,97,91,82,30.20,30.15,5,0,6,0.00
2013-10-17,56,50,44,50,47,43,96,90,79,30.28,30.21,7,0,7,0.00
2013-10-18,59,48,42,52,46,40,97,92,77,30.25,30.14,5,1,6,0.01
2013-10-19,52,47,43,50,45,42,97,94,87,30.20,30.15,3,0,4,0.00
2013-10-20,51,48,46,48,46,45,96,94,89,30.21,30.15,6,0,6,0.00
2013-10-21,53,49,46,50,47,45,96,94,86,30.17,30.10,5,0,5,0.00
2013-10-22,58,49,47,52,48,46,97,93,82,30.13,30.03,6,1,7,0.01
2013-10-23,59,48,44,52,46,43,98,94,78,30.06,29.97,4,0,4,0.00
2013-10-24,52,48,44,50,47,43,98,95,91,30.13,30.02,4,0,5,0.01
2013-10-25,53,49,45,49,47,44,96,93,88,30.32,30.13,5,1,6,0.00
2013-10-26,54,50,45,48,47,44,97,89,79,30.34,30.19,6,0,8,0.00
2013-10-27,58,49,43,50,46,42,96,91,75,30.20,29.90,8,1,12,0.08
2013-10-28,58,48,40,46,40,35,97,77,46,29.95,29.88,13,1,16,0.01
2013-10-29,57,43,33,47,37,32,96,81,48,30.04,29.95,6,1,7,0.00
2013-10-30,57,47,36,48,41,34,95,82,65,30.13,30.03,10,1,10,0.02
2013-10-31,55,52,50,51,48,44,95,87,75,30.26,30.10,9,1,11,0.00
2013-11-1,60,54,50,52,50,49,95,87,71,30.27,29.83,5,0,6,0.00
2013-11-2,55,51,46,51,46,40,96,85,71,29.88,29.48,29,3,35,0.38
2013-11-3,52,45,39,44,41,38,95,85,65,30.11,29.88,9,1,10,0.00
2013-11-4,50,42,33,41,38,32,96,84,58,30.20,30.05,7,0,8,0.04
2013-11-5,56,47,43,50,45,41,96,92,75,30.26,30.01,12,1,13,0.10
2013-11-6,52,48,43,48,45,42,97,92,82,30.32,30.03,9,0,9,0.05
2013-11-7,52,50,48,50,47,45,96,92,80,30.03,29.71,19,2,19,0.62
2013-11-8,55,49,42,46,45,41,96,84,72,30.16,29.97,11,1,15,0.00
2013-11-9,52,46,38,46,43,37,96,91,75,30.15,30.07,3,0,4,0.05
2013-11-10,50,47,45,47,45,43,97,92,86,30.15,30.09,5,0,5,0.01
2013-11-11,59,48,42,50,45,40,96,90,67,30.16,29.99,5,0,5,0.00
2013-11-12,59,52,45,54,50,43,96,91,83,30.35,30.02,9,1,11,0.11
2013-11-13,56,53,51,51,49,47,91,87,77,30.43,30.30,10,1,12,0.00
2013-11-14,51,48,44,48,46,43,96,94,88,30.30,30.06,3,0,5,0.09
2013-11-15,49,46,43,47,43,42,97,92,86,30.06,29.32,19,2,22,0.33
2013-11-16,49,45,41,44,40,38,96,84,71,29.77,29.34,12,2,14,0.01
2013-11-17,53,48,45,48,44,40,91,85,78,29.90,29.76,16,3,18,0.00
2013-11-18,52,50,48,50,48,45,96,92,87,29.90,29.55,13,2,13,0.43
2013-11-19,54,45,38,52,39,26,94,82,58,30.07,29.54,11,1,13,0.09
2013-11-20,43,36,29,33,28,25,92,75,51,30.52,30.07,8,0,8,0.00
2013-11-21,44,33,26,31,27,24,94,79,48,30.67,30.52,5,0,7,0.01
2013-11-22,47,36,28,33,29,25,92,77,47,30.66,30.46,4,0,5,0.00
2013-11-23,52,39,30,39,32,27,93,79,50,30.45,30.20,4,0,5,0.00
2013-11-24,51,39,30,45,36,29,96,88,66,30.26,30.17,5,0,5,0.00
2013-11-25,53,40,32,44,36,30,96,88,64,30.32,30.26,3,0,3,0.00
2013-11-26,52,42,33,44,38,31,97,89,69,30.27,30.10,4,0,5,0.01
2013-11-27,56,46,36,45,40,35,95,82,61,30.10,29.95,4,0,4,0.00
2013-11-28,48,38,33,46,37,32,97,96,92,30.18,30.02,3,0,4,0.01
2013-11-29,48,44,37,46,42,36,97,93,86,30.32,30.18,6,0,9,0.00
2013-11-30,52,49,46,48,45,43,94,85,76,30.33,30.08,10,2,11,0.09
2013-12-1,54,52,43,51,48,39,95,88,81,30.08,29.73,18,3,21,0.03
2013-12-2,46,40,36,39,36,33,95,85,62,30.06,29.81,9,1,11,0.04
2013-12-3,39,34,27,37,27,24,95,77,56,30.32,30.06,9,1,11,0.00
2013-12-4,38,29,24,33,25,23,94,84,61,30.36,30.30,4,0,4,0.01
2013-12-5,33,28,22,27,22,14,93,79,53,30.33,30.20,8,0,11,0.00
2013-12-6,33,26,21,18,13,9,76,58,40,30.25,30.15,10,1,11,0.00
2013-12-7,31,22,16,14,9,4,79,58,34,30.44,30.24,5,0,6,0.00
2013-12-8,34,24,15,25,16,11,85,72,51,30.59,30.43,4,1,5,0.00
2013-12-9,34,28,19,26,21,16,86,73,61,30.60,30.49,4,0,5,0.00
2013-12-10,40,36,32,35,31,26,87,82,77,30.50,30.42,4,0,5,0.00
2013-12-11,42,34,28,39,31,27,96,89,79,30.43,30.17,3,0,4,0.00
2013-12-12,44,38,31,42,35,29,96,91,69,30.17,30.05,10,1,11,0.19
2013-12-13,48,46,43,46,44,42,96,95,93,30.42,30.13,5,0,7,0.03
2013-12-14,49,47,44,45,44,42,96,90,83,30.44,30.32,8,1,13,0.00
2013-12-15,51,49,47,48,47,44,96,92,83,30.45,30.31,11,1,13,0.06
2013-12-16,47,44,40,46,42,39,97,95,89,30.50,30.27,4,0,4,0.00
2013-12-17,46,42,39,43,40,39,97,94,89,30.27,30.11,8,1,10,0.00
2013-12-18,44,42,32,43,38,30,94,87,72,30.16,30.02,7,0,8,0.03
2013-12-19,40,33,28,36,29,26,95,85,61,30.35,30.15,5,0,5,0.00
2013-12-20,41,36,32,40,34,29,96,93,88,30.21,29.72,14,1,16,0.27
2013-12-21,44,42,39,44,41,38,97,96,96,30.16,29.84,3,0,4,0.15
2013-12-22,50,47,44,49,46,44,97,97,94,30.29,30.16,12,1,13,0.28
2013-12-23,54,48,42,49,46,40,95,91,81,30.52,30.11,20,2,20,0.05
2013-12-24,48,40,34,44,38,33,97,92,75,30.63,30.52,4,0,4,0.00
2013-12-25,39,34,31,37,33,30,97,96,93,30.54,30.40,4,0,4,0.00
2013-12-26,44,36,32,42,35,31,97,96,88,30.41,30.21,4,0,5,0.01
2013-12-27,45,40,33,44,38,32,98,96,86,30.38,30.11,10,0,12,0.03
2013-12-28,48,43,37,45,41,35,97,94,85,30.53,30.38,3,0,3,0.00
2013-12-29,44,40,38,41,39,37,97,95,90,30.50,30.32,5,0,5,0.01
2013-12-30,44,41,37,43,40,36,97,96,94,30.34,30.14,10,0,13,0.01
2013-12-31,46,44,39,45,42,38,96,94,88,30.39,30.20,7,0,9,0.00
2014-1-1,45,40,34,43,39,34,97,96,91,30.42,30.25,5,0,7,0.00
2014-1-2,50,45,41,45,43,40,97,92,78,30.26,29.90,10,1,12,0.26